sensor_id;sensor_type;location;lat;lon;timestamp;temperature;humidity
9033;DHT22;4551;53.164;8.210;2023-02-12T00:00:55;7.30;99.90
9033;DHT22;4551;53.164;8.210;2023-02-12T00:03:23;7.20;99.90
9033;DHT22;4551;53.164;8.210;2023-02-12T00:05:51;7.20;99.90
9033;DHT22;4551;53.164;8.210;2023-02-12T00:08:19;7.20;99.90
9033;DHT22;4551;53.164;8.210;2023-02-12T00:10:49;7.20;99.90
9033;DHT22;4551;53.164;8.210;2023-02-12T00:13:17;7.10;99.90
9033;DHT22;4551;53.164;8.210;2023-02-12T00:15:45;7.20;99.90
9033;DHT22;4551;53.164;8.210;2023-02-12T00:18:13;7.10;99.90
9033;DHT22;4551;53.164;8.210;2023-02-12T00:20:41;7.20;99.90
9033;DHT22;4551;53.164;8.210;2023-02-12T00:23:09;7.10;99.90
9033;DHT22;4551;53.164;8.210;2023-02-12T00:25:39;7.10;99.90
9033;DHT22;4551;53.164;8.210;2023-02-12T00:28:08;7.10;99.90
9033;DHT22;4551;53.164;8.210;2023-02-12T00:30:36;7.00;99.90
9033;DHT22;4551;53.164;8.210;2023-02-12T00:33:05;7.00;99.90
9033;DHT22;4551;53.164;8.210;2023-02-12T00:35:35;7.00;99.90
9033;DHT22;4551;53.164;8.210;2023-02-12T00:38:03;7.00;99.90
9033;DHT22;4551;53.164;8.210;2023-02-12T00:40:31;7.00;99.90
9033;DHT22;4551;53.164;8.210;2023-02-12T00:42:59;7.00;99.90
9033;DHT22;4551;53.164;8.210;2023-02-12T00:45:28;7.00;99.90
9033;DHT22;4551;53.164;8.210;2023-02-12T00:47:56;7.00;99.90
9033;DHT22;4551;53.164;8.210;2023-02-12T00:50:24;7.00;99.90
9033;DHT22;4551;53.164;8.210;2023-02-12T00:52:56;7.00;99.90
9033;DHT22;4551;53.164;8.210;2023-02-12T00:55:24;7.00;99.90
9033;DHT22;4551;53.164;8.210;2023-02-12T00:57:52;7.00;99.90
9033;DHT22;4551;53.164;8.210;2023-02-12T01:00:20;7.00;99.90
9033;DHT22;4551;53.164;8.210;2023-02-12T01:02:49;7.00;99.90
9033;DHT22;4551;53.164;8.210;2023-02-12T01:05:17;7.00;99.90
9033;DHT22;4551;53.164;8.210;2023-02-12T01:07:48;7.00;99.90
9033;DHT22;4551;53.164;8.210;2023-02-12T01:10:17;7.00;99.90
9033;DHT22;4551;53.164;8.210;2023-02-12T01:12:46;7.00;99.90
9033;DHT22;4551;53.164;8.210;2023-02-12T01:15:15;6.90;99.90
9033;DHT22;4551;53.164;8.210;2023-02-12T01:17:44;6.90;99.90
9033;DHT22;4551;53.164;8.210;2023-02-12T01:20:14;7.00;99.90
9033;DHT22;4551;53.164;8.210;2023-02-12T01:22:43;6.90;99.90
9033;DHT22;4551;53.164;8.210;2023-02-12T01:25:13;6.90;99.90
9033;DHT22;4551;53.164;8.210;2023-02-12T01:27:46;6.90;99.90
9033;DHT22;4551;53.164;8.210;2023-02-12T01:30:14;7.00;99.90
9033;DHT22;4551;53.164;8.210;2023-02-12T01:32:42;6.90;99.90
9033;DHT22;4551;53.164;8.210;2023-02-12T01:35:10;7.00;99.90
9033;DHT22;4551;53.164;8.210;2023-02-12T01:37:40;7.00;99.90
9033;DHT22;4551;53.164;8.210;2023-02-12T01:40:08;7.00;99.90
9033;DHT22;4551;53.164;8.210;2023-02-12T01:42:36;7.00;99.90
9033;DHT22;4551;53.164;8.210;2023-02-12T01:45:41;7.00;99.90
9033;DHT22;4551;53.164;8.210;2023-02-12T01:48:11;7.00;99.90
9033;DHT22;4551;53.164;8.210;2023-02-12T01:50:40;7.00;99.90
9033;DHT22;4551;53.164;8.210;2023-02-12T01:53:10;7.00;99.90
9033;DHT22;4551;53.164;8.210;2023-02-12T01:55:49;7.00;99.90
9033;DHT22;4551;53.164;8.210;2023-02-12T01:58:18;7.00;99.90
9033;DHT22;4551;53.164;8.210;2023-02-12T02:00:46;7.00;99.90
9033;DHT22;4551;53.164;8.210;2023-02-12T02:03:14;7.00;99.90
9033;DHT22;4551;53.164;8.210;2023-02-12T02:05:45;6.90;99.90
9033;DHT22;4551;53.164;8.210;2023-02-12T02:08:15;6.90;99.90
9033;DHT22;4551;53.164;8.210;2023-02-12T02:10:43;6.90;99.90
9033;DHT22;4551;53.164;8.210;2023-02-12T02:13:11;6.90;99.90
9033;DHT22;4551;53.164;8.210;2023-02-12T02:15:59;6.90;99.90
9033;DHT22;4551;53.164;8.210;2023-02-12T02:18:29;6.90;99.90
9033;DHT22;4551;53.164;8.210;2023-02-12T02:21:09;7.00;99.90
9033;DHT22;4551;53.164;8.210;2023-02-12T02:23:47;6.90;99.90
9033;DHT22;4551;53.164;8.210;2023-02-12T02:31:53;6.90;99.90
9033;DHT22;4551;53.164;8.210;2023-02-12T02:34:23;6.90;99.90
9033;DHT22;4551;53.164;8.210;2023-02-12T02:36:56;6.90;99.90
9033;DHT22;4551;53.164;8.210;2023-02-12T02:39:27;6.90;99.90
9033;DHT22;4551;53.164;8.210;2023-02-12T02:41:57;6.90;99.90
9033;DHT22;4551;53.164;8.210;2023-02-12T02:44:27;6.90;99.90
9033;DHT22;4551;53.164;8.210;2023-02-12T02:46:58;6.90;99.90
9033;DHT22;4551;53.164;8.210;2023-02-12T02:49:28;6.90;99.90
9033;DHT22;4551;53.164;8.210;2023-02-12T02:52:02;6.90;99.90
9033;DHT22;4551;53.164;8.210;2023-02-12T02:54:32;6.80;99.90
9033;DHT22;4551;53.164;8.210;2023-02-12T02:57:05;6.80;99.90
9033;DHT22;4551;53.164;8.210;2023-02-12T02:59:36;6.80;99.90
9033;DHT22;4551;53.164;8.210;2023-02-12T03:02:09;6.80;99.90
9033;DHT22;4551;53.164;8.210;2023-02-12T03:04:40;6.60;99.90
9033;DHT22;4551;53.164;8.210;2023-02-12T03:07:12;6.80;99.90
9033;DHT22;4551;53.164;8.210;2023-02-12T03:09:44;6.80;99.90
9033;DHT22;4551;53.164;8.210;2023-02-12T03:12:13;6.80;99.90
9033;DHT22;4551;53.164;8.210;2023-02-12T03:14:43;6.80;99.90
9033;DHT22;4551;53.164;8.210;2023-02-12T03:17:14;6.90;99.90
9033;DHT22;4551;53.164;8.210;2023-02-12T03:19:44;6.80;99.90
9033;DHT22;4551;53.164;8.210;2023-02-12T03:22:14;6.80;99.90
9033;DHT22;4551;53.164;8.210;2023-02-12T03:24:43;6.80;99.90
9033;DHT22;4551;53.164;8.210;2023-02-12T03:27:14;6.80;99.90
9033;DHT22;4551;53.164;8.210;2023-02-12T03:29:44;6.80;99.90
9033;DHT22;4551;53.164;8.210;2023-02-12T03:32:17;6.80;99.90
9033;DHT22;4551;53.164;8.210;2023-02-12T03:34:48;6.80;99.90
9033;DHT22;4551;53.164;8.210;2023-02-12T03:37:18;6.80;99.90
9033;DHT22;4551;53.164;8.210;2023-02-12T03:39:50;6.80;99.90
9033;DHT22;4551;53.164;8.210;2023-02-12T03:42:22;6.80;99.90
9033;DHT22;4551;53.164;8.210;2023-02-12T03:44:55;6.80;99.90
9033;DHT22;4551;53.164;8.210;2023-02-12T03:47:26;6.80;99.90
9033;DHT22;4551;53.164;8.210;2023-02-12T03:49:59;6.80;99.90
9033;DHT22;4551;53.164;8.210;2023-02-12T03:52:29;6.80;99.90
9033;DHT22;4551;53.164;8.210;2023-02-12T03:54:58;6.80;99.90
9033;DHT22;4551;53.164;8.210;2023-02-12T03:57:26;6.80;99.90
9033;DHT22;4551;53.164;8.210;2023-02-12T03:59:57;6.80;99.90
9033;DHT22;4551;53.164;8.210;2023-02-12T04:02:27;6.80;99.90
9033;DHT22;4551;53.164;8.210;2023-02-12T04:04:55;6.80;99.90
9033;DHT22;4551;53.164;8.210;2023-02-12T04:07:24;6.80;99.90
9033;DHT22;4551;53.164;8.210;2023-02-12T04:09:52;6.80;99.90
9033;DHT22;4551;53.164;8.210;2023-02-12T04:12:23;6.80;99.90
9033;DHT22;4551;53.164;8.210;2023-02-12T04:14:56;6.80;99.90
9033;DHT22;4551;53.164;8.210;2023-02-12T04:17:31;6.80;99.90
9033;DHT22;4551;53.164;8.210;2023-02-12T04:20:04;6.80;99.90
9033;DHT22;4551;53.164;8.210;2023-02-12T04:22:38;6.80;99.90
9033;DHT22;4551;53.164;8.210;2023-02-12T04:25:20;6.80;99.90
9033;DHT22;4551;53.164;8.210;2023-02-12T04:27:51;6.80;99.90
9033;DHT22;4551;53.164;8.210;2023-02-12T04:30:23;6.80;99.90
9033;DHT22;4551;53.164;8.210;2023-02-12T04:32:54;6.80;99.90
9033;DHT22;4551;53.164;8.210;2023-02-12T04:35:23;6.80;99.90
9033;DHT22;4551;53.164;8.210;2023-02-12T04:37:54;6.80;99.90
9033;DHT22;4551;53.164;8.210;2023-02-12T04:40:24;6.80;99.90
9033;DHT22;4551;53.164;8.210;2023-02-12T04:42:52;6.80;99.90
9033;DHT22;4551;53.164;8.210;2023-02-12T04:45:21;6.80;99.90
9033;DHT22;4551;53.164;8.210;2023-02-12T04:47:50;6.80;99.90
9033;DHT22;4551;53.164;8.210;2023-02-12T04:50:19;6.80;99.90
9033;DHT22;4551;53.164;8.210;2023-02-12T04:52:49;6.80;99.90
9033;DHT22;4551;53.164;8.210;2023-02-12T04:55:17;6.90;99.90
9033;DHT22;4551;53.164;8.210;2023-02-12T04:57:46;6.80;99.90
9033;DHT22;4551;53.164;8.210;2023-02-12T05:00:14;6.90;99.90
9033;DHT22;4551;53.164;8.210;2023-02-12T05:02:42;6.80;99.90
9033;DHT22;4551;53.164;8.210;2023-02-12T05:05:10;6.80;99.90
9033;DHT22;4551;53.164;8.210;2023-02-12T05:07:40;6.80;99.90
9033;DHT22;4551;53.164;8.210;2023-02-12T05:10:08;6.80;99.90
9033;DHT22;4551;53.164;8.210;2023-02-12T05:12:36;6.80;99.90
9033;DHT22;4551;53.164;8.210;2023-02-12T05:15:04;6.80;99.90
9033;DHT22;4551;53.164;8.210;2023-02-12T05:17:32;6.80;99.90
9033;DHT22;4551;53.164;8.210;2023-02-12T05:20:00;6.80;99.90
9033;DHT22;4551;53.164;8.210;2023-02-12T05:22:28;6.80;99.90
9033;DHT22;4551;53.164;8.210;2023-02-12T05:24:58;6.80;99.90
9033;DHT22;4551;53.164;8.210;2023-02-12T05:27:26;6.80;99.90
9033;DHT22;4551;53.164;8.210;2023-02-12T05:29:56;6.70;99.90
9033;DHT22;4551;53.164;8.210;2023-02-12T05:32:24;6.80;99.90
9033;DHT22;4551;53.164;8.210;2023-02-12T05:34:52;6.80;99.90
9033;DHT22;4551;53.164;8.210;2023-02-12T05:37:20;6.80;99.90
9033;DHT22;4551;53.164;8.210;2023-02-12T05:39:48;6.80;99.90
9033;DHT22;4551;53.164;8.210;2023-02-12T05:42:19;6.70;99.90
9033;DHT22;4551;53.164;8.210;2023-02-12T05:44:47;6.70;99.90
9033;DHT22;4551;53.164;8.210;2023-02-12T05:47:15;6.70;99.90
9033;DHT22;4551;53.164;8.210;2023-02-12T05:49:44;6.70;99.90
9033;DHT22;4551;53.164;8.210;2023-02-12T05:52:12;6.70;99.90
9033;DHT22;4551;53.164;8.210;2023-02-12T05:54:40;6.70;99.90
9033;DHT22;4551;53.164;8.210;2023-02-12T05:57:08;6.70;99.90
9033;DHT22;4551;53.164;8.210;2023-02-12T05:59:38;6.70;99.90
9033;DHT22;4551;53.164;8.210;2023-02-12T06:02:06;6.70;99.90
9033;DHT22;4551;53.164;8.210;2023-02-12T06:04:34;6.70;99.90
9033;DHT22;4551;53.164;8.210;2023-02-12T06:07:01;6.70;99.90
9033;DHT22;4551;53.164;8.210;2023-02-12T06:09:29;6.70;99.90
9033;DHT22;4551;53.164;8.210;2023-02-12T06:12:05;6.70;99.90
9033;DHT22;4551;53.164;8.210;2023-02-12T06:14:33;6.70;99.90
9033;DHT22;4551;53.164;8.210;2023-02-12T06:17:02;6.70;99.90
9033;DHT22;4551;53.164;8.210;2023-02-12T06:19:30;6.70;99.90
9033;DHT22;4551;53.164;8.210;2023-02-12T06:21:58;6.70;99.90
9033;DHT22;4551;53.164;8.210;2023-02-12T06:24:26;6.70;99.90
9033;DHT22;4551;53.164;8.210;2023-02-12T06:26:54;6.70;99.90
9033;DHT22;4551;53.164;8.210;2023-02-12T06:29:22;6.70;99.90
9033;DHT22;4551;53.164;8.210;2023-02-12T06:31:50;6.70;99.90
9033;DHT22;4551;53.164;8.210;2023-02-12T06:34:20;6.70;99.90
9033;DHT22;4551;53.164;8.210;2023-02-12T06:36:48;6.70;99.90
9033;DHT22;4551;53.164;8.210;2023-02-12T06:39:16;6.70;99.90
9033;DHT22;4551;53.164;8.210;2023-02-12T06:41:46;6.70;99.90
9033;DHT22;4551;53.164;8.210;2023-02-12T06:44:14;6.70;99.90
9033;DHT22;4551;53.164;8.210;2023-02-12T06:46:42;6.70;99.90
9033;DHT22;4551;53.164;8.210;2023-02-12T06:49:10;6.70;99.90
9033;DHT22;4551;53.164;8.210;2023-02-12T06:51:40;6.70;99.90
9033;DHT22;4551;53.164;8.210;2023-02-12T06:54:11;6.70;99.90
9033;DHT22;4551;53.164;8.210;2023-02-12T06:56:39;6.70;99.90
9033;DHT22;4551;53.164;8.210;2023-02-12T06:59:09;6.70;99.90
9033;DHT22;4551;53.164;8.210;2023-02-12T07:01:38;6.70;99.90
9033;DHT22;4551;53.164;8.210;2023-02-12T07:04:06;6.60;99.90
9033;DHT22;4551;53.164;8.210;2023-02-12T07:06:34;6.70;99.90
9033;DHT22;4551;53.164;8.210;2023-02-12T07:09:04;6.60;99.90
9033;DHT22;4551;53.164;8.210;2023-02-12T07:11:33;6.60;99.90
9033;DHT22;4551;53.164;8.210;2023-02-12T07:14:04;6.70;99.90
9033;DHT22;4551;53.164;8.210;2023-02-12T07:16:32;6.70;99.90
9033;DHT22;4551;53.164;8.210;2023-02-12T07:19:00;6.60;99.90
9033;DHT22;4551;53.164;8.210;2023-02-12T07:21:28;6.60;99.90
9033;DHT22;4551;53.164;8.210;2023-02-12T07:23:57;6.70;99.90
9033;DHT22;4551;53.164;8.210;2023-02-12T07:26:27;6.60;99.90
9033;DHT22;4551;53.164;8.210;2023-02-12T07:28:55;6.70;99.90
9033;DHT22;4551;53.164;8.210;2023-02-12T07:31:23;6.70;99.90
9033;DHT22;4551;53.164;8.210;2023-02-12T07:33:52;6.70;99.90
9033;DHT22;4551;53.164;8.210;2023-02-12T07:36:21;6.70;99.90
9033;DHT22;4551;53.164;8.210;2023-02-12T07:38:49;6.70;99.90
9033;DHT22;4551;53.164;8.210;2023-02-12T07:41:18;6.70;99.90
9033;DHT22;4551;53.164;8.210;2023-02-12T07:43:51;6.70;99.90
9033;DHT22;4551;53.164;8.210;2023-02-12T07:46:21;6.70;99.90
9033;DHT22;4551;53.164;8.210;2023-02-12T07:48:51;6.70;99.90
9033;DHT22;4551;53.164;8.210;2023-02-12T07:51:20;6.70;99.90
9033;DHT22;4551;53.164;8.210;2023-02-12T07:53:48;6.70;99.90
9033;DHT22;4551;53.164;8.210;2023-02-12T07:56:17;6.70;99.90
9033;DHT22;4551;53.164;8.210;2023-02-12T07:58:46;6.70;99.90
9033;DHT22;4551;53.164;8.210;2023-02-12T08:01:16;6.70;99.90
9033;DHT22;4551;53.164;8.210;2023-02-12T08:03:45;6.70;99.90
9033;DHT22;4551;53.164;8.210;2023-02-12T08:06:14;6.70;99.90
9033;DHT22;4551;53.164;8.210;2023-02-12T08:08:43;6.70;99.90
9033;DHT22;4551;53.164;8.210;2023-02-12T08:11:13;6.70;99.90
9033;DHT22;4551;53.164;8.210;2023-02-12T08:13:42;6.70;99.90
9033;DHT22;4551;53.164;8.210;2023-02-12T08:16:11;6.80;99.90
9033;DHT22;4551;53.164;8.210;2023-02-12T08:18:40;6.80;99.90
9033;DHT22;4551;53.164;8.210;2023-02-12T08:21:09;6.70;99.90
9033;DHT22;4551;53.164;8.210;2023-02-12T08:23:38;6.80;99.90
9033;DHT22;4551;53.164;8.210;2023-02-12T08:26:07;6.70;99.90
9033;DHT22;4551;53.164;8.210;2023-02-12T08:28:36;6.80;99.90
9033;DHT22;4551;53.164;8.210;2023-02-12T08:31:05;6.80;99.90
9033;DHT22;4551;53.164;8.210;2023-02-12T08:33:33;6.80;99.90
9033;DHT22;4551;53.164;8.210;2023-02-12T08:36:04;6.80;99.90
9033;DHT22;4551;53.164;8.210;2023-02-12T08:38:33;6.80;99.90
9033;DHT22;4551;53.164;8.210;2023-02-12T08:41:01;6.90;99.90
9033;DHT22;4551;53.164;8.210;2023-02-12T08:43:29;6.90;99.90
9033;DHT22;4551;53.164;8.210;2023-02-12T08:46:01;6.90;99.90
9033;DHT22;4551;53.164;8.210;2023-02-12T08:48:30;6.80;99.90
9033;DHT22;4551;53.164;8.210;2023-02-12T08:51:07;6.90;99.90
9033;DHT22;4551;53.164;8.210;2023-02-12T08:53:39;6.90;99.90
9033;DHT22;4551;53.164;8.210;2023-02-12T08:56:07;6.90;99.90
9033;DHT22;4551;53.164;8.210;2023-02-12T08:58:35;6.90;99.90
9033;DHT22;4551;53.164;8.210;2023-02-12T09:01:04;7.00;99.90
9033;DHT22;4551;53.164;8.210;2023-02-12T09:03:35;7.00;99.90
9033;DHT22;4551;53.164;8.210;2023-02-12T09:06:05;7.00;99.90
9033;DHT22;4551;53.164;8.210;2023-02-12T09:08:34;7.00;99.90
9033;DHT22;4551;53.164;8.210;2023-02-12T09:11:03;7.00;99.90
9033;DHT22;4551;53.164;8.210;2023-02-12T09:13:34;7.00;99.90
9033;DHT22;4551;53.164;8.210;2023-02-12T09:16:03;7.00;99.90
9033;DHT22;4551;53.164;8.210;2023-02-12T09:18:31;7.00;99.90
9033;DHT22;4551;53.164;8.210;2023-02-12T09:21:00;7.00;99.90
9033;DHT22;4551;53.164;8.210;2023-02-12T09:23:29;7.00;99.90
9033;DHT22;4551;53.164;8.210;2023-02-12T09:25:57;7.00;99.90
9033;DHT22;4551;53.164;8.210;2023-02-12T09:28:25;7.00;99.90
9033;DHT22;4551;53.164;8.210;2023-02-12T09:30:54;7.00;99.90
9033;DHT22;4551;53.164;8.210;2023-02-12T09:33:22;7.00;99.90
9033;DHT22;4551;53.164;8.210;2023-02-12T09:35:50;7.00;99.90
9033;DHT22;4551;53.164;8.210;2023-02-12T09:38:18;7.10;99.90
9033;DHT22;4551;53.164;8.210;2023-02-12T09:41:00;7.10;99.90
9033;DHT22;4551;53.164;8.210;2023-02-12T09:43:32;7.10;99.90
9033;DHT22;4551;53.164;8.210;2023-02-12T09:46:04;7.10;99.90
9033;DHT22;4551;53.164;8.210;2023-02-12T09:48:41;7.20;99.90
9033;DHT22;4551;53.164;8.210;2023-02-12T09:51:12;7.20;99.90
9033;DHT22;4551;53.164;8.210;2023-02-12T09:53:42;7.20;99.90
9033;DHT22;4551;53.164;8.210;2023-02-12T09:56:14;7.20;99.90
9033;DHT22;4551;53.164;8.210;2023-02-12T09:58:45;7.20;99.90
9033;DHT22;4551;53.164;8.210;2023-02-12T10:01:14;7.20;99.90
9033;DHT22;4551;53.164;8.210;2023-02-12T10:03:43;7.20;99.90
9033;DHT22;4551;53.164;8.210;2023-02-12T10:06:20;7.10;99.90
9033;DHT22;4551;53.164;8.210;2023-02-12T10:08:52;7.10;99.90
9033;DHT22;4551;53.164;8.210;2023-02-12T10:11:32;7.10;99.90
9033;DHT22;4551;53.164;8.210;2023-02-12T10:14:04;7.10;99.90
9033;DHT22;4551;53.164;8.210;2023-02-12T10:16:42;7.10;99.90
9033;DHT22;4551;53.164;8.210;2023-02-12T10:19:14;7.00;99.90
9033;DHT22;4551;53.164;8.210;2023-02-12T10:21:52;7.20;99.90
9033;DHT22;4551;53.164;8.210;2023-02-12T10:27:19;7.10;99.90
9033;DHT22;4551;53.164;8.210;2023-02-12T10:29:49;7.10;99.90
9033;DHT22;4551;53.164;8.210;2023-02-12T10:32:20;7.10;99.90
9033;DHT22;4551;53.164;8.210;2023-02-12T10:34:50;7.10;99.90
9033;DHT22;4551;53.164;8.210;2023-02-12T10:37:24;7.20;99.90
9033;DHT22;4551;53.164;8.210;2023-02-12T10:39:53;7.10;99.90
9033;DHT22;4551;53.164;8.210;2023-02-12T10:42:25;7.10;99.90
9033;DHT22;4551;53.164;8.210;2023-02-12T10:44:58;7.20;99.90
9033;DHT22;4551;53.164;8.210;2023-02-12T10:47:26;7.20;99.90
9033;DHT22;4551;53.164;8.210;2023-02-12T10:49:55;7.20;99.90
9033;DHT22;4551;53.164;8.210;2023-02-12T10:52:27;7.10;99.90
9033;DHT22;4551;53.164;8.210;2023-02-12T10:54:56;7.20;99.90
9033;DHT22;4551;53.164;8.210;2023-02-12T10:57:28;7.10;99.90
9033;DHT22;4551;53.164;8.210;2023-02-12T11:00:13;7.10;99.90
9033;DHT22;4551;53.164;8.210;2023-02-12T11:02:41;7.10;99.90
9033;DHT22;4551;53.164;8.210;2023-02-12T11:05:27;7.10;99.90
9033;DHT22;4551;53.164;8.210;2023-02-12T11:07:56;7.20;99.90
9033;DHT22;4551;53.164;8.210;2023-02-12T11:10:26;7.20;99.90
9033;DHT22;4551;53.164;8.210;2023-02-12T11:12:58;7.20;99.90
9033;DHT22;4551;53.164;8.210;2023-02-12T11:15:27;7.20;99.90
9033;DHT22;4551;53.164;8.210;2023-02-12T11:17:57;7.30;99.90
9033;DHT22;4551;53.164;8.210;2023-02-12T11:20:27;7.30;99.90
9033;DHT22;4551;53.164;8.210;2023-02-12T11:22:57;7.30;99.90
9033;DHT22;4551;53.164;8.210;2023-02-12T11:25:26;7.30;99.90
9033;DHT22;4551;53.164;8.210;2023-02-12T11:28:00;7.30;99.90
9033;DHT22;4551;53.164;8.210;2023-02-12T11:30:28;7.30;99.90
9033;DHT22;4551;53.164;8.210;2023-02-12T11:35:46;7.40;99.90
9033;DHT22;4551;53.164;8.210;2023-02-12T11:38:16;7.40;99.90
9033;DHT22;4551;53.164;8.210;2023-02-12T11:40:49;7.40;99.90
9033;DHT22;4551;53.164;8.210;2023-02-12T11:43:19;7.40;99.90
9033;DHT22;4551;53.164;8.210;2023-02-12T11:45:47;7.50;99.90
9033;DHT22;4551;53.164;8.210;2023-02-12T11:48:18;7.50;99.90
9033;DHT22;4551;53.164;8.210;2023-02-12T11:50:48;7.50;99.90
9033;DHT22;4551;53.164;8.210;2023-02-12T11:53:18;7.50;99.90
9033;DHT22;4551;53.164;8.210;2023-02-12T11:55:55;7.50;99.90
9033;DHT22;4551;53.164;8.210;2023-02-12T11:58:25;7.50;99.90
9033;DHT22;4551;53.164;8.210;2023-02-12T12:00:57;7.50;99.90
9033;DHT22;4551;53.164;8.210;2023-02-12T12:03:27;7.50;99.90
9033;DHT22;4551;53.164;8.210;2023-02-12T12:05:56;7.50;99.90
9033;DHT22;4551;53.164;8.210;2023-02-12T12:08:26;7.50;99.90
9033;DHT22;4551;53.164;8.210;2023-02-12T12:10:57;7.50;99.90
9033;DHT22;4551;53.164;8.210;2023-02-12T12:13:30;7.50;99.90
9033;DHT22;4551;53.164;8.210;2023-02-12T12:16:01;7.50;99.90
9033;DHT22;4551;53.164;8.210;2023-02-12T12:18:50;7.50;99.90
9033;DHT22;4551;53.164;8.210;2023-02-12T12:21:39;7.50;99.90
9033;DHT22;4551;53.164;8.210;2023-02-12T12:24:10;7.50;99.90
9033;DHT22;4551;53.164;8.210;2023-02-12T12:26:40;7.50;99.90
9033;DHT22;4551;53.164;8.210;2023-02-12T12:29:12;7.50;99.90
9033;DHT22;4551;53.164;8.210;2023-02-12T12:31:49;7.50;99.90
9033;DHT22;4551;53.164;8.210;2023-02-12T12:34:19;7.50;99.90
9033;DHT22;4551;53.164;8.210;2023-02-12T12:36:52;7.50;99.90
9033;DHT22;4551;53.164;8.210;2023-02-12T12:39:30;7.60;99.90
9033;DHT22;4551;53.164;8.210;2023-02-12T12:42:16;7.60;99.90
9033;DHT22;4551;53.164;8.210;2023-02-12T12:44:53;7.60;99.90
9033;DHT22;4551;53.164;8.210;2023-02-12T12:47:31;7.60;99.90
9033;DHT22;4551;53.164;8.210;2023-02-12T12:50:08;7.60;99.90
9033;DHT22;4551;53.164;8.210;2023-02-12T12:52:50;7.60;99.90
9033;DHT22;4551;53.164;8.210;2023-02-12T12:55:25;7.70;99.90
9033;DHT22;4551;53.164;8.210;2023-02-12T12:57:58;7.70;99.90
9033;DHT22;4551;53.164;8.210;2023-02-12T13:00:33;7.70;99.90
9033;DHT22;4551;53.164;8.210;2023-02-12T13:08:55;7.80;99.90
9033;DHT22;4551;53.164;8.210;2023-02-12T13:11:28;7.80;99.90
9033;DHT22;4551;53.164;8.210;2023-02-12T13:14:03;7.80;99.90
9033;DHT22;4551;53.164;8.210;2023-02-12T13:16:36;7.80;99.90
9033;DHT22;4551;53.164;8.210;2023-02-12T13:19:08;7.90;99.90
9033;DHT22;4551;53.164;8.210;2023-02-12T13:21:43;7.90;99.90
9033;DHT22;4551;53.164;8.210;2023-02-12T13:24:17;7.90;99.90
9033;DHT22;4551;53.164;8.210;2023-02-12T13:26:48;7.90;99.90
9033;DHT22;4551;53.164;8.210;2023-02-12T13:29:18;8.00;99.90
9033;DHT22;4551;53.164;8.210;2023-02-12T13:31:50;8.00;99.90
9033;DHT22;4551;53.164;8.210;2023-02-12T13:34:26;8.10;99.90
9033;DHT22;4551;53.164;8.210;2023-02-12T13:36:59;8.20;99.90
9033;DHT22;4551;53.164;8.210;2023-02-12T13:39:28;8.20;99.90
9033;DHT22;4551;53.164;8.210;2023-02-12T13:42:01;8.30;99.90
9033;DHT22;4551;53.164;8.210;2023-02-12T13:44:33;8.30;99.90
9033;DHT22;4551;53.164;8.210;2023-02-12T13:47:07;8.40;99.90
9033;DHT22;4551;53.164;8.210;2023-02-12T13:49:40;8.40;99.90
9033;DHT22;4551;53.164;8.210;2023-02-12T13:52:12;8.40;99.90
9033;DHT22;4551;53.164;8.210;2023-02-12T13:54:47;8.50;99.90
9033;DHT22;4551;53.164;8.210;2023-02-12T13:57:16;8.50;99.90
9033;DHT22;4551;53.164;8.210;2023-02-12T13:59:45;8.50;99.90
9033;DHT22;4551;53.164;8.210;2023-02-12T14:02:26;8.50;99.90
9033;DHT22;4551;53.164;8.210;2023-02-12T14:04:55;8.50;99.90
9033;DHT22;4551;53.164;8.210;2023-02-12T14:07:38;8.40;99.90
9033;DHT22;4551;53.164;8.210;2023-02-12T14:10:17;8.40;99.90
9033;DHT22;4551;53.164;8.210;2023-02-12T14:12:46;8.40;99.90
9033;DHT22;4551;53.164;8.210;2023-02-12T14:15:23;8.40;99.90
9033;DHT22;4551;53.164;8.210;2023-02-12T14:17:55;8.40;99.90
9033;DHT22;4551;53.164;8.210;2023-02-12T14:20:24;8.40;99.90
9033;DHT22;4551;53.164;8.210;2023-02-12T14:23:19;8.40;99.90
9033;DHT22;4551;53.164;8.210;2023-02-12T14:25:54;8.50;99.90
9033;DHT22;4551;53.164;8.210;2023-02-12T14:28:26;8.40;99.90
9033;DHT22;4551;53.164;8.210;2023-02-12T14:33:40;8.40;99.90
9033;DHT22;4551;53.164;8.210;2023-02-12T14:36:12;8.50;99.90
9033;DHT22;4551;53.164;8.210;2023-02-12T14:41:28;8.40;99.90
9033;DHT22;4551;53.164;8.210;2023-02-12T14:46:53;8.50;99.90
9033;DHT22;4551;53.164;8.210;2023-02-12T14:49:26;8.50;99.90
9033;DHT22;4551;53.164;8.210;2023-02-12T14:51:56;8.40;99.90
9033;DHT22;4551;53.164;8.210;2023-02-12T14:54:27;8.50;99.90
9033;DHT22;4551;53.164;8.210;2023-02-12T14:56:57;8.40;99.90
9033;DHT22;4551;53.164;8.210;2023-02-12T14:59:27;8.40;99.90
9033;DHT22;4551;53.164;8.210;2023-02-12T15:01:59;8.40;99.90
9033;DHT22;4551;53.164;8.210;2023-02-12T15:04:29;8.50;99.90
9033;DHT22;4551;53.164;8.210;2023-02-12T15:06:59;8.50;99.90
9033;DHT22;4551;53.164;8.210;2023-02-12T15:09:31;8.50;99.90
9033;DHT22;4551;53.164;8.210;2023-02-12T15:12:02;8.50;99.90
9033;DHT22;4551;53.164;8.210;2023-02-12T15:14:34;8.50;99.90
9033;DHT22;4551;53.164;8.210;2023-02-12T15:17:04;8.50;99.90
9033;DHT22;4551;53.164;8.210;2023-02-12T15:19:41;8.50;99.90
9033;DHT22;4551;53.164;8.210;2023-02-12T15:22:18;8.50;99.90
9033;DHT22;4551;53.164;8.210;2023-02-12T15:24:47;8.50;99.90
9033;DHT22;4551;53.164;8.210;2023-02-12T15:27:15;8.50;99.90
9033;DHT22;4551;53.164;8.210;2023-02-12T15:29:44;8.50;99.90
9033;DHT22;4551;53.164;8.210;2023-02-12T15:32:14;8.50;99.90
9033;DHT22;4551;53.164;8.210;2023-02-12T15:34:46;8.50;99.90
9033;DHT22;4551;53.164;8.210;2023-02-12T15:37:19;8.60;99.90
9033;DHT22;4551;53.164;8.210;2023-02-12T15:39:48;8.60;99.90
9033;DHT22;4551;53.164;8.210;2023-02-12T15:42:24;8.50;99.90
9033;DHT22;4551;53.164;8.210;2023-02-12T15:45:00;8.60;99.90
9033;DHT22;4551;53.164;8.210;2023-02-12T15:47:28;8.50;99.90
9033;DHT22;4551;53.164;8.210;2023-02-12T15:49:59;8.60;99.90
9033;DHT22;4551;53.164;8.210;2023-02-12T15:52:29;8.50;99.90
9033;DHT22;4551;53.164;8.210;2023-02-12T15:55:00;8.50;99.90
9033;DHT22;4551;53.164;8.210;2023-02-12T15:57:29;8.50;99.90
9033;DHT22;4551;53.164;8.210;2023-02-12T15:59:59;8.50;99.90
9033;DHT22;4551;53.164;8.210;2023-02-12T16:02:30;8.60;99.90
9033;DHT22;4551;53.164;8.210;2023-02-12T16:05:02;8.60;99.90
9033;DHT22;4551;53.164;8.210;2023-02-12T16:07:33;8.60;99.90
9033;DHT22;4551;53.164;8.210;2023-02-12T16:10:02;8.60;99.90
9033;DHT22;4551;53.164;8.210;2023-02-12T16:12:32;8.50;99.90
9033;DHT22;4551;53.164;8.210;2023-02-12T16:15:02;8.50;99.90
9033;DHT22;4551;53.164;8.210;2023-02-12T16:17:31;8.50;99.90
9033;DHT22;4551;53.164;8.210;2023-02-12T16:20:02;8.50;99.90
9033;DHT22;4551;53.164;8.210;2023-02-12T16:22:31;8.50;99.90
9033;DHT22;4551;53.164;8.210;2023-02-12T16:25:00;8.50;99.90
9033;DHT22;4551;53.164;8.210;2023-02-12T16:27:28;8.50;99.90
9033;DHT22;4551;53.164;8.210;2023-02-12T16:29:57;8.50;99.90
9033;DHT22;4551;53.164;8.210;2023-02-12T16:32:31;8.50;99.90
9033;DHT22;4551;53.164;8.210;2023-02-12T16:35:02;8.50;99.90
9033;DHT22;4551;53.164;8.210;2023-02-12T16:37:45;8.50;99.90
9033;DHT22;4551;53.164;8.210;2023-02-12T16:40:18;8.50;99.90
9033;DHT22;4551;53.164;8.210;2023-02-12T16:42:57;8.50;99.90
9033;DHT22;4551;53.164;8.210;2023-02-12T16:45:34;8.50;99.90
9033;DHT22;4551;53.164;8.210;2023-02-12T16:48:06;8.50;99.90
9033;DHT22;4551;53.164;8.210;2023-02-12T16:50:36;8.50;99.90
9033;DHT22;4551;53.164;8.210;2023-02-12T16:53:06;8.50;99.90
9033;DHT22;4551;53.164;8.210;2023-02-12T16:55:35;8.60;99.90
9033;DHT22;4551;53.164;8.210;2023-02-12T16:58:03;8.50;99.90
9033;DHT22;4551;53.164;8.210;2023-02-12T17:00:31;8.50;99.90
9033;DHT22;4551;53.164;8.210;2023-02-12T17:02:59;8.50;99.90
9033;DHT22;4551;53.164;8.210;2023-02-12T17:05:27;8.50;99.90